Time;durP1;ratioP1;P1;durP2;ratioP2;P2;SDS_P1;SDS_P2;PMS_P1;PMS_P2;Temp;Humidity;BMP_temperature;BMP_pressure;BME280_temperature;BME280_humidity;BME280_pressure;Samples;Min_cycle;Max_cycle;Signal;HPM_P1;HPM_P2
2023/09/23 00:00:24;;;;;;;3.50;2.03;;;15.50;77.60;;;;;;9181157;19;20022;-70
2023/09/23 00:03:33;;;;;;;2.88;1.52;;;15.50;77.80;;;;;;9180299;19;20057;-68
2023/09/23 00:06:44;;;;;;;2.40;1.80;;;15.50;77.80;;;;;;9182420;19;20014;-71
2023/09/23 00:09:54;;;;;;;2.80;1.90;;;15.50;77.70;;;;;;9181427;19;20443;-68
2023/09/23 00:13:02;;;;;;;4.00;1.90;;;15.40;77.70;;;;;;9179805;19;20018;-72
2023/09/23 00:16:11;;;;;;;2.65;1.80;;;15.40;77.80;;;;;;9178429;19;20468;-72
2023/09/23 00:19:19;;;;;;;2.75;2.08;;;15.40;77.80;;;;;;9180794;19;20029;-71
2023/09/23 00:22:27;;;;;;;3.67;1.98;;;15.40;77.90;;;;;;9179678;19;20010;-71
2023/09/23 00:25:35;;;;;;;4.20;2.60;;;15.30;77.90;;;;;;9179680;19;20021;-72
2023/09/23 00:28:41;;;;;;;4.03;2.78;;;15.30;77.90;;;;;;9179113;19;20014;-70
2023/09/23 00:31:48;;;;;;;4.38;2.40;;;15.30;78.00;;;;;;9182735;19;20052;-71
2023/09/23 00:34:54;;;;;;;4.65;2.85;;;15.20;78.00;;;;;;9180253;19;20022;-73
2023/09/23 00:38:05;;;;;;;7.55;3.17;;;15.20;77.90;;;;;;9181588;19;20393;-73
2023/09/23 00:41:11;;;;;;;4.55;3.45;;;15.20;77.90;;;;;;9180434;19;20021;-71
2023/09/23 00:44:18;;;;;;;5.28;3.63;;;15.20;77.90;;;;;;9179547;19;20015;-70
2023/09/23 00:47:25;;;;;;;5.95;3.70;;;15.10;77.80;;;;;;9179076;19;20059;-71
2023/09/23 00:50:56;;;;;;;5.50;3.80;;;15.10;78.00;;;;;;9181213;19;20112;-73
2023/09/23 00:54:09;;;;;;;7.90;4.25;;;15.00;77.90;;;;;;9179361;19;20028;-69
2023/09/23 00:57:17;;;;;;;4.97;4.25;;;15.00;77.90;;;;;;9178557;19;20064;-71
2023/09/23 01:00:27;;;;;;;5.28;4.18;;;15.00;77.90;;;;;;9174730;19;20014;-70
2023/09/23 01:03:36;;;;;;;5.88;4.45;;;14.90;78.00;;;;;;9174981;19;20034;-70
2023/09/23 01:06:43;;;;;;;6.70;4.00;;;14.90;78.10;;;;;;9168726;19;20795;-73
2023/09/23 01:09:53;;;;;;;4.53;3.90;;;14.90;78.20;;;;;;9161066;19;20033;-69
2023/09/23 01:12:59;;;;;;;7.60;4.97;;;14.90;78.40;;;;;;9170148;19;20564;-72
2023/09/23 01:16:12;;;;;;;7.43;4.43;;;14.90;78.30;;;;;;9167271;19;20014;-69
2023/09/23 01:19:18;;;;;;;6.30;4.20;;;14.90;78.40;;;;;;9169590;19;20360;-71
2023/09/23 01:22:29;;;;;;;6.30;4.85;;;14.80;78.90;;;;;;9170187;19;20045;-71
2023/09/23 01:25:36;;;;;;;7.93;5.20;;;14.80;78.30;;;;;;9168516;19;20767;-70
2023/09/23 01:28:45;;;;;;;7.53;5.63;;;14.80;78.30;;;;;;9168730;19;20030;-70
2023/09/23 01:32:05;;;;;;;8.57;5.50;;;14.80;78.40;;;;;;9170022;19;20050;-72
2023/09/23 01:35:15;;;;;;;8.27;5.55;;;14.70;78.50;;;;;;9168272;19;20078;-72
2023/09/23 01:38:23;;;;;;;10.88;6.00;;;14.70;78.50;;;;;;9167477;19;20436;-73
2023/09/23 01:41:31;;;;;;;9.98;6.32;;;14.70;78.60;;;;;;9167911;19;20483;-72
2023/09/23 01:44:36;;;;;;;9.68;6.20;;;14.70;78.50;;;;;;9168625;19;20042;-73
2023/09/23 01:47:44;;;;;;;7.40;5.82;;;14.70;78.60;;;;;;9166156;19;20014;-70
2023/09/23 01:50:51;;;;;;;10.13;6.53;;;14.60;78.60;;;;;;9164996;19;20019;-70
2023/09/23 01:54:01;;;;;;;9.20;5.88;;;14.60;79.40;;;;;;9166282;19;20254;-67
2023/09/23 01:57:06;;;;;;;10.75;6.28;;;14.60;80.10;;;;;;9164728;19;20022;-71
2023/09/23 02:00:17;;;;;;;13.02;6.60;;;14.60;79.10;;;;;;9167247;19;20028;-70
2023/09/23 02:03:23;;;;;;;10.15;6.97;;;14.60;79.20;;;;;;9169064;19;20018;-72
2023/09/23 02:06:34;;;;;;;11.77;6.80;;;14.60;79.50;;;;;;9167608;19;20022;-68
2023/09/23 02:09:42;;;;;;;9.52;6.40;;;14.50;79.00;;;;;;9164690;19;20021;-71
2023/09/23 02:12:49;;;;;;;11.40;7.13;;;14.60;80.30;;;;;;9165818;19;20028;-72
2023/09/23 02:15:56;;;;;;;9.93;7.00;;;14.50;79.10;;;;;;9160852;19;20358;-67
2023/09/23 02:19:06;;;;;;;9.55;6.55;;;14.60;79.10;;;;;;9165440;19;20363;-69
2023/09/23 02:22:11;;;;;;;12.10;7.38;;;14.50;79.20;;;;;;9164993;19;20057;-69
2023/09/23 02:25:25;;;;;;;10.75;7.20;;;14.50;79.30;;;;;;9166215;19;20015;-71
2023/09/23 02:28:31;;;;;;;12.82;7.18;;;14.50;79.30;;;;;;9166394;19;20041;-73
2023/09/23 02:31:38;;;;;;;10.73;6.90;;;14.60;80.30;;;;;;9166420;19;20487;-66
2023/09/23 02:34:45;;;;;;;9.10;6.70;;;14.50;80.40;;;;;;9168591;19;20018;-73
2023/09/23 02:37:53;;;;;;;12.52;7.28;;;14.50;79.50;;;;;;9168365;19;20025;-70
2023/09/23 02:41:05;;;;;;;9.15;6.68;;;14.60;82.90;;;;;;9166394;19;20142;-70
2023/09/23 02:44:18;;;;;;;10.40;6.80;;;14.50;81.40;;;;;;9166234;19;20022;-72
2023/09/23 02:47:24;;;;;;;9.45;6.28;;;14.40;79.50;;;;;;9168268;19;20023;-72
2023/09/23 02:50:31;;;;;;;10.32;7.18;;;14.40;79.40;;;;;;9166374;19;20034;-71
2023/09/23 02:53:37;;;;;;;12.95;7.57;;;14.40;79.70;;;;;;9165101;19;20476;-72
2023/09/23 02:56:50;;;;;;;12.23;8.40;;;14.40;80.00;;;;;;9166367;19;20011;-73
2023/09/23 02:59:57;;;;;;;11.60;8.20;;;14.40;81.60;;;;;;9166246;19;20019;-68
2023/09/23 03:03:12;;;;;;;14.35;8.65;;;14.40;82.30;;;;;;9163763;19;20014;-73
2023/09/23 03:06:18;;;;;;;14.88;8.60;;;14.40;81.20;;;;;;9164847;19;20056;-72
2023/09/23 03:09:31;;;;;;;10.45;7.90;;;14.30;79.40;;;;;;9165300;19;20026;-72
2023/09/23 03:12:51;;;;;;;11.55;7.70;;;14.30;81.80;;;;;;9164959;19;20026;-72
2023/09/23 03:16:08;;;;;;;11.43;8.38;;;14.20;81.10;;;;;;9160330;19;20022;-70
2023/09/23 03:19:15;;;;;;;15.07;8.45;;;14.20;82.80;;;;;;9163456;19;20021;-71
2023/09/23 03:22:23;;;;;;;11.27;7.72;;;14.20;86.00;;;;;;9163467;19;20476;-68
2023/09/23 03:25:28;;;;;;;14.20;7.35;;;14.20;85.10;;;;;;9165337;19;20478;-72
2023/09/23 03:28:42;;;;;;;11.93;7.97;;;14.10;86.10;;;;;;9163515;19;20010;-74
2023/09/23 03:31:48;;;;;;;11.00;7.35;;;14.00;80.80;;;;;;9159406;19;20007;-74
2023/09/23 03:34:56;;;;;;;11.55;7.40;;;14.00;80.20;;;;;;9165000;19;20024;-66
2023/09/23 03:38:01;;;;;;;12.80;7.32;;;14.00;80.00;;;;;;9163556;19;20116;-71
2023/09/23 03:41:11;;;;;;;13.60;7.38;;;13.90;80.10;;;;;;9162741;19;20368;-65
2023/09/23 03:44:20;;;;;;;14.88;7.63;;;13.90;79.80;;;;;;9166595;19;20007;-61
2023/09/23 03:47:28;;;;;;;11.60;7.38;;;13.90;79.90;;;;;;9166389;19;20010;-63
2023/09/23 03:50:34;;;;;;;13.07;8.13;;;13.90;80.10;;;;;;9167455;19;20010;-62
2023/09/23 03:53:41;;;;;;;15.13;8.52;;;13.90;80.30;;;;;;9166512;19;20022;-64
2023/09/23 03:56:47;;;;;;;14.90;8.75;;;13.90;81.40;;;;;;9166540;19;20018;-63
2023/09/23 03:59:56;;;;;;;19.30;10.00;;;14.00;83.30;;;;;;9167027;19;20022;-63
2023/09/23 04:03:02;;;;;;;15.27;8.93;;;13.90;83.20;;;;;;9165554;19;20793;-66
2023/09/23 04:06:09;;;;;;;13.48;9.07;;;13.90;83.60;;;;;;9166325;19;20026;-62
2023/09/23 04:09:17;;;;;;;15.27;9.73;;;13.90;81.70;;;;;;9163171;19;20014;-62
2023/09/23 04:12:24;;;;;;;18.33;10.93;;;13.80;80.20;;;;;;9163938;19;20018;-63
2023/09/23 04:15:33;;;;;;;17.65;11.07;;;13.80;81.20;;;;;;9160969;19;20082;-62
2023/09/23 04:18:40;;;;;;;19.40;11.27;;;13.90;87.40;;;;;;9165962;19;20022;-64
2023/09/23 04:21:46;;;;;;;18.45;12.00;;;13.80;81.20;;;;;;9164613;19;20018;-61
2023/09/23 04:24:53;;;;;;;20.10;12.32;;;13.80;82.10;;;;;;9164112;19;20018;-62
2023/09/23 04:27:58;;;;;;;18.85;12.70;;;13.70;80.90;;;;;;9167374;19;20022;-62
2023/09/23 04:31:09;;;;;;;24.15;12.80;;;13.80;84.10;;;;;;9162487;19;20029;-62
2023/09/23 04:34:14;;;;;;;18.38;12.65;;;13.90;88.30;;;;;;9163702;19;20472;-66
2023/09/23 04:37:23;;;;;;;24.55;13.30;;;13.90;85.50;;;;;;9163372;19;20018;-67
2023/09/23 04:40:29;;;;;;;25.48;14.93;;;12.70;83.00;;;;;;9165321;19;20476;-63
2023/09/23 04:43:36;;;;;;;21.05;13.73;;;13.80;88.60;;;;;;9173090;19;20022;-65
2023/09/23 04:46:45;;;;;;;24.63;13.85;;;13.80;85.40;;;;;;9170994;19;20023;-62
2023/09/23 04:49:54;;;;;;;20.80;13.75;;;13.90;82.50;;;;;;9171153;19;20486;-63
2023/09/23 04:52:59;;;;;;;20.05;13.93;;;13.80;81.70;;;;;;9170170;19;20237;-65
2023/09/23 04:56:10;;;;;;;22.77;14.02;;;13.80;82.70;;;;;;9169830;19;20014;-67
2023/09/23 04:59:15;;;;;;;25.08;14.40;;;13.90;88.40;;;;;;9169720;19;20353;-62
2023/09/23 05:02:25;;;;;;;21.35;14.00;;;13.90;87.60;;;;;;9171310;19;20022;-63
2023/09/23 05:05:31;;;;;;;24.00;15.43;;;13.90;90.20;;;;;;9169859;19;20051;-64
2023/09/23 05:08:39;;;;;;;26.02;14.98;;;13.90;85.40;;;;;;9171440;19;20479;-63
2023/09/23 05:11:44;;;;;;;31.67;15.57;;;14.00;86.90;;;;;;9169138;19;20014;-62
2023/09/23 05:14:51;;;;;;;24.55;15.18;;;13.90;85.10;;;;;;9169884;19;20018;-62
2023/09/23 05:18:00;;;;;;;33.55;17.42;;;13.90;88.10;;;;;;9173120;19;20037;-63
2023/09/23 05:21:09;;;;;;;30.13;19.05;;;14.00;87.40;;;;;;9177418;19;20022;-64
2023/09/23 05:24:14;;;;;;;32.35;18.60;;;13.90;82.40;;;;;;9178089;19;20025;-65
2023/09/23 05:27:22;;;;;;;31.48;18.98;;;14.10;86.00;;;;;;9175937;19;20358;-64
2023/09/23 05:30:29;;;;;;;37.65;19.77;;;13.90;90.80;;;;;;9181923;19;20456;-64
2023/09/23 05:33:39;;;;;;;31.58;19.48;;;14.00;90.90;;;;;;9183272;19;20014;-67
2023/09/23 05:36:44;;;;;;;29.30;19.35;;;13.90;90.00;;;;;;9184869;19;20018;-65
2023/09/23 05:39:51;;;;;;;35.10;19.85;;;13.90;85.50;;;;;;9184842;19;20010;-63
2023/09/23 05:42:57;;;;;;;30.00;18.30;;;14.40;87.70;;;;;;9181986;19;20018;-66
2023/09/23 05:46:11;;;;;;;28.75;17.85;;;14.40;84.50;;;;;;9176956;19;20030;-63
2023/09/23 05:49:19;;;;;;;33.90;18.50;;;14.00;84.40;;;;;;9180701;19;20015;-64
2023/09/23 05:52:27;;;;;;;29.75;18.02;;;13.90;85.20;;;;;;9179760;19;20038;-64
2023/09/23 05:55:32;;;;;;;26.70;17.33;;;14.00;89.90;;;;;;9179922;19;20021;-63
2023/09/23 05:58:42;;;;;;;35.65;18.15;;;13.90;83.10;;;;;;9177219;19;20018;-63
2023/09/23 06:01:47;;;;;;;28.60;17.45;;;13.90;83.20;;;;;;9177960;19;20019;-64
2023/09/23 06:05:01;;;;;;;24.70;16.98;;;14.00;83.20;;;;;;9179860;19;20014;-64
2023/09/23 06:08:08;;;;;;;29.75;17.30;;;14.00;83.40;;;;;;9173514;19;20458;-64
2023/09/23 06:11:15;;;;;;;27.25;17.05;;;14.00;84.00;;;;;;9170497;19;20011;-64
2023/09/23 06:14:25;;;;;;;32.72;17.10;;;14.00;84.20;;;;;;9176845;19;20049;-63
2023/09/23 06:17:35;;;;;;;27.25;15.27;;;14.00;83.40;;;;;;9175934;19;20018;-64
2023/09/23 06:20:43;;;;;;;24.98;15.32;;;14.00;83.40;;;;;;9176338;19;20006;-63
2023/09/23 06:23:50;;;;;;;22.67;15.05;;;14.10;84.60;;;;;;9175843;19;20010;-64
2023/09/23 06:26:56;;;;;;;24.35;15.77;;;14.10;85.70;;;;;;9177017;19;20097;-63
2023/09/23 06:30:07;;;;;;;22.30;14.30;;;14.20;87.70;;;;;;9177146;19;20014;-63
2023/09/23 06:33:13;;;;;;;23.55;14.73;;;14.10;87.30;;;;;;9175328;19;20022;-65
2023/09/23 06:36:23;;;;;;;22.95;14.60;;;14.30;85.30;;;;;;9175866;19;20030;-63
2023/09/23 06:39:28;;;;;;;23.15;13.88;;;14.10;88.00;;;;;;9180304;19;20018;-62
2023/09/23 06:42:36;;;;;;;24.77;13.70;;;14.10;86.40;;;;;;9177502;19;20361;-67
2023/09/23 06:45:41;;;;;;;25.77;14.02;;;14.10;84.90;;;;;;9176844;19;20381;-63
2023/09/23 06:48:49;;;;;;;23.08;13.80;;;14.20;85.10;;;;;;9175283;19;20019;-63
2023/09/23 06:51:57;;;;;;;23.83;13.55;;;14.10;84.60;;;;;;9171312;19;20022;-64
2023/09/23 06:55:05;;;;;;;22.45;13.82;;;14.20;84.80;;;;;;9171940;19;20015;-64
2023/09/23 06:58:10;;;;;;;19.77;12.48;;;14.10;84.70;;;;;;9170950;19;20033;-63
2023/09/23 07:01:17;;;;;;;19.50;12.57;;;14.10;85.10;;;;;;9170022;19;20025;-64
2023/09/23 07:04:23;;;;;;;23.05;13.10;;;14.30;85.30;;;;;;9170681;19;20030;-64
2023/09/23 07:07:33;;;;;;;22.65;14.05;;;14.20;85.90;;;;;;9168703;19;20015;-63
2023/09/23 07:10:39;;;;;;;19.05;12.93;;;14.40;86.30;;;;;;9171432;19;20026;-67
2023/09/23 07:13:46;;;;;;;18.17;12.70;;;14.30;89.30;;;;;;9167830;19;20014;-68
2023/09/23 07:16:52;;;;;;;22.05;11.73;;;14.30;84.60;;;;;;9165131;19;20661;-66
2023/09/23 07:19:59;;;;;;;20.92;11.70;;;14.20;81.60;;;;;;9168951;19;20049;-62
2023/09/23 07:23:08;;;;;;;24.33;13.65;;;14.20;81.70;;;;;;9169516;19;20349;-64
2023/09/23 07:26:22;;;;;;;19.30;12.02;;;14.20;81.60;;;;;;9170798;19;20049;-64
2023/09/23 07:29:27;;;;;;;24.27;12.35;;;14.30;82.00;;;;;;9167926;19;20021;-67
2023/09/23 07:32:35;;;;;;;19.85;12.35;;;14.40;85.20;;;;;;9166427;19;20360;-67
2023/09/23 07:35:40;;;;;;;21.20;12.35;;;14.50;87.20;;;;;;9171377;19;20021;-69
2023/09/23 07:38:50;;;;;;;23.70;11.23;;;15.00;84.80;;;;;;9169165;19;20801;-69
2023/09/23 07:41:55;;;;;;;23.02;11.40;;;14.50;87.10;;;;;;9169361;19;20343;-64
2023/09/23 07:45:03;;;;;;;19.88;11.57;;;14.60;88.80;;;;;;9168739;19;20020;-63
2023/09/23 07:48:10;;;;;;;19.15;10.82;;;14.60;83.50;;;;;;9168664;19;20027;-63
2023/09/23 07:51:17;;;;;;;17.63;11.38;;;14.50;80.90;;;;;;9167436;19;20654;-64
2023/09/23 07:54:25;;;;;;;17.55;11.15;;;14.50;81.40;;;;;;9164166;19;20090;-63
2023/09/23 07:57:32;;;;;;;18.20;10.20;;;14.60;81.40;;;;;;9167844;19;20022;-62
2023/09/23 08:00:38;;;;;;;17.90;10.32;;;14.60;81.40;;;;;;9166630;19;20015;-67
2023/09/23 08:03:45;;;;;;;17.20;10.13;;;14.60;81.30;;;;;;9166034;19;20373;-63
2023/09/23 08:06:51;;;;;;;18.42;9.75;;;14.70;81.30;;;;;;9164747;19;20018;-65
2023/09/23 08:10:02;;;;;;;17.48;10.48;;;14.70;81.40;;;;;;9165078;19;20017;-63
2023/09/23 08:13:08;;;;;;;17.70;9.75;;;14.70;82.00;;;;;;9162476;19;20769;-63
2023/09/23 08:16:15;;;;;;;16.58;9.10;;;14.80;81.40;;;;;;9164051;19;20021;-64
2023/09/23 08:19:20;;;;;;;22.10;9.15;;;14.80;81.40;;;;;;9177323;19;20034;-64
2023/09/23 08:22:28;;;;;;;21.35;9.02;;;14.90;81.50;;;;;;9173967;19;20022;-64
2023/09/23 08:25:36;;;;;;;15.00;8.93;;;14.90;81.30;;;;;;9174819;19;20019;-67
2023/09/23 08:28:43;;;;;;;16.58;8.80;;;14.90;81.50;;;;;;9176084;19;20026;-65
2023/09/23 08:31:49;;;;;;;20.05;9.73;;;14.90;81.40;;;;;;9176700;19;20010;-65
2023/09/23 08:34:56;;;;;;;13.93;8.23;;;15.10;81.50;;;;;;9170964;19;20022;-66
2023/09/23 08:38:02;;;;;;;18.75;8.45;;;15.10;81.60;;;;;;9175316;19;20082;-64
2023/09/23 08:41:13;;;;;;;16.60;8.30;;;15.20;81.50;;;;;;9173560;19;20014;-66
2023/09/23 08:44:22;;;;;;;15.50;8.13;;;15.20;81.50;;;;;;9172716;19;20044;-68
2023/09/23 08:47:32;;;;;;;10.32;7.35;;;15.30;81.40;;;;;;9174338;19;20019;-65
2023/09/23 08:50:39;;;;;;;15.55;7.50;;;15.40;81.40;;;;;;9173480;19;20369;-63
2023/09/23 08:53:48;;;;;;;15.32;8.13;;;15.40;81.40;;;;;;9169742;19;20018;-68
2023/09/23 08:56:57;;;;;;;16.25;7.20;;;15.50;81.30;;;;;;9172251;19;20018;-66
2023/09/23 09:00:07;;;;;;;12.32;7.05;;;15.60;81.30;;;;;;9173096;19;20684;-64
2023/09/23 09:03:13;;;;;;;10.07;6.90;;;15.70;81.10;;;;;;9173743;19;20006;-67
2023/09/23 09:06:21;;;;;;;11.63;6.78;;;15.70;81.10;;;;;;9173072;19;20018;-65
2023/09/23 09:09:27;;;;;;;10.73;6.95;;;15.70;80.90;;;;;;9171342;19;20536;-66
2023/09/23 09:12:37;;;;;;;9.90;6.32;;;15.80;80.80;;;;;;9172701;19;20025;-63
2023/09/23 09:15:42;;;;;;;13.40;6.00;;;15.80;80.80;;;;;;9168596;19;20029;-67
2023/09/23 09:18:52;;;;;;;12.50;6.55;;;15.90;80.80;;;;;;9170984;19;20022;-66
2023/09/23 09:21:59;;;;;;;14.55;5.70;;;16.00;80.90;;;;;;9173584;19;20021;-62
2023/09/23 09:25:10;;;;;;;14.25;5.63;;;16.00;80.80;;;;;;9172087;19;20022;-66
2023/09/23 09:28:21;;;;;;;14.50;5.80;;;16.00;80.80;;;;;;9170811;19;20010;-63
2023/09/23 09:31:39;;;;;;;10.25;5.47;;;16.10;80.80;;;;;;9173122;19;20480;-62
2023/09/23 09:34:46;;;;;;;13.68;5.50;;;16.20;80.70;;;;;;9168904;19;20446;-66
2023/09/23 09:37:56;;;;;;;11.15;6.25;;;16.30;80.70;;;;;;9173331;19;20638;-65
2023/09/23 09:41:24;;;;;;;8.30;4.82;;;16.30;80.60;;;;;;9169151;19;20027;-65
2023/09/23 09:44:35;;;;;;;10.25;5.30;;;16.40;80.50;;;;;;9171211;19;20022;-63
2023/09/23 09:47:44;;;;;;;9.60;4.93;;;16.40;80.40;;;;;;9171745;19;20066;-68
2023/09/23 09:50:52;;;;;;;9.50;5.28;;;16.50;80.30;;;;;;9170300;19;20023;-67
2023/09/23 09:53:58;;;;;;;11.23;5.10;;;16.60;80.30;;;;;;9168345;19;20108;-67
2023/09/23 09:57:07;;;;;;;9.20;5.15;;;16.60;80.30;;;;;;9170854;19;20449;-62
2023/09/23 10:00:27;;;;;;;15.52;5.25;;;16.70;80.30;;;;;;9169706;19;20461;-62
2023/09/23 10:03:34;;;;;;;7.30;4.68;;;16.70;80.10;;;;;;9171438;19;20713;-65
2023/09/23 10:06:42;;;;;;;13.15;5.40;;;16.80;80.10;;;;;;9170434;19;20911;-63
2023/09/23 10:09:58;;;;;;;13.32;4.88;;;16.80;80.00;;;;;;9168908;19;20501;-65
2023/09/23 10:13:10;;;;;;;9.23;4.50;;;16.90;80.00;;;;;;9171356;19;20108;-64
2023/09/23 10:16:20;;;;;;;9.50;3.92;;;17.00;80.00;;;;;;9165612;19;20010;-67
2023/09/23 10:19:33;;;;;;;8.85;4.38;;;17.00;80.00;;;;;;9170096;19;20048;-64
2023/09/23 10:22:40;;;;;;;6.43;3.72;;;17.10;79.80;;;;;;9170968;19;20010;-63
2023/09/23 10:25:47;;;;;;;7.82;3.78;;;17.20;79.80;;;;;;9172681;19;20014;-64
2023/09/23 10:29:00;;;;;;;8.35;3.42;;;17.20;79.70;;;;;;9172011;19;20026;-65
2023/09/23 10:32:16;;;;;;;7.65;3.70;;;17.30;79.70;;;;;;9171810;19;20025;-64
2023/09/23 10:35:26;;;;;;;12.18;3.78;;;17.30;79.50;;;;;;9167041;19;20776;-64
2023/09/23 10:38:34;;;;;;;10.18;4.07;;;17.40;79.50;;;;;;9167905;19;20477;-67
2023/09/23 10:41:42;;;;;;;8.57;3.10;;;17.50;79.50;;;;;;9163119;19;20015;-66
2023/09/23 10:44:48;;;;;;;4.28;2.55;;;17.50;79.30;;;;;;9165382;19;20611;-63
2023/09/23 10:47:58;;;;;;;5.72;2.67;;;17.60;79.10;;;;;;9169043;19;20108;-67
2023/09/23 10:51:05;;;;;;;6.75;2.60;;;17.60;79.10;;;;;;9165750;19;20103;-66
2023/09/23 10:54:17;;;;;;;11.30;3.33;;;17.60;79.10;;;;;;9165575;19;20018;-65
2023/09/23 10:57:23;;;;;;;9.93;3.40;;;17.70;79.10;;;;;;9168439;19;20022;-64
2023/09/23 11:00:33;;;;;;;6.70;2.40;;;17.80;79.10;;;;;;9166790;19;20026;-65
2023/09/23 11:03:43;;;;;;;8.38;2.25;;;17.90;79.00;;;;;;9167873;19;20372;-64
2023/09/23 11:06:50;;;;;;;6.85;2.65;;;17.90;78.80;;;;;;9166203;19;20026;-66
2023/09/23 11:09:56;;;;;;;5.53;2.47;;;18.00;78.60;;;;;;9164667;19;20024;-63
2023/09/23 11:13:06;;;;;;;10.68;2.58;;;18.00;78.40;;;;;;9165760;19;20021;-67
2023/09/23 11:16:12;;;;;;;6.18;2.55;;;18.10;78.30;;;;;;9160609;19;20010;-64
2023/09/23 11:19:22;;;;;;;9.05;2.17;;;18.10;78.10;;;;;;9165392;19;20040;-68
2023/09/23 11:22:28;;;;;;;6.63;2.10;;;18.10;78.60;;;;;;9163850;19;20522;-66
2023/09/23 11:25:41;;;;;;;5.05;2.22;;;18.10;77.80;;;;;;9164172;19;20032;-63
2023/09/23 11:28:47;;;;;;;8.30;2.15;;;18.10;77.70;;;;;;9164385;19;20465;-64
2023/09/23 11:31:54;;;;;;;7.32;2.10;;;18.10;77.80;;;;;;9164123;19;20025;-65
2023/09/23 11:35:02;;;;;;;6.13;1.63;;;18.10;77.80;;;;;;9163846;19;20638;-64
2023/09/23 11:38:10;;;;;;;2.65;1.50;;;18.10;77.80;;;;;;9163559;19;20014;-63
2023/09/23 11:41:16;;;;;;;8.27;1.98;;;18.20;77.70;;;;;;9164696;19;20014;-65
2023/09/23 11:44:23;;;;;;;7.80;1.90;;;18.10;77.70;;;;;;9165801;19;20448;-66
2023/09/23 11:47:28;;;;;;;5.10;2.17;;;18.20;77.80;;;;;;9164707;19;20026;-63
2023/09/23 11:50:39;;;;;;;7.22;2.60;;;18.20;77.80;;;;;;9162235;19;20595;-65
2023/09/23 11:53:44;;;;;;;9.75;1.88;;;18.20;77.60;;;;;;9164470;19;20466;-66
2023/09/23 11:56:52;;;;;;;4.38;1.90;;;18.30;77.70;;;;;;9162500;19;20013;-63
2023/09/23 11:59:57;;;;;;;4.90;1.95;;;18.30;77.50;;;;;;9165571;19;20064;-63
2023/09/23 12:03:05;;;;;;;8.95;2.25;;;18.40;77.50;;;;;;9163186;19;20484;-63
2023/09/23 12:06:13;;;;;;;8.43;2.25;;;18.40;77.50;;;;;;9161341;19;20848;-62
2023/09/23 12:09:20;;;;;;;6.93;2.05;;;18.40;78.00;;;;;;9160147;19;20018;-64
2023/09/23 12:12:26;;;;;;;11.15;2.35;;;18.50;77.40;;;;;;9161223;19;20015;-67
2023/09/23 12:15:34;;;;;;;5.50;3.25;;;18.50;77.30;;;;;;9157227;19;20026;-63
2023/09/23 12:18:39;;;;;;;8.40;2.33;;;18.60;77.30;;;;;;9161198;19;20010;-64
2023/09/23 12:21:50;;;;;;;5.30;2.10;;;18.60;77.20;;;;;;9165114;19;20010;-64
2023/09/23 12:24:56;;;;;;;8.63;2.83;;;18.60;77.20;;;;;;9162680;19;20014;-67
2023/09/23 12:28:04;;;;;;;7.47;2.38;;;18.60;77.00;;;;;;9163503;19;20019;-66
2023/09/23 12:31:10;;;;;;;8.05;2.42;;;18.70;77.00;;;;;;9163514;19;20043;-66
2023/09/23 12:34:17;;;;;;;8.57;2.33;;;18.60;77.00;;;;;;9161701;19;20019;-63
2023/09/23 12:37:27;;;;;;;6.00;2.10;;;18.70;77.00;;;;;;9165370;19;20007;-64
2023/09/23 12:40:34;;;;;;;9.07;2.20;;;18.70;76.80;;;;;;9162824;19;20634;-64
2023/09/23 12:43:40;;;;;;;7.93;2.40;;;18.60;76.70;;;;;;9162454;19;20015;-65
2023/09/23 12:46:47;;;;;;;8.38;2.53;;;18.60;76.80;;;;;;9162480;19;20010;-66
2023/09/23 12:49:53;;;;;;;6.70;2.40;;;18.60;76.70;;;;;;9165257;19;20500;-63
2023/09/23 12:53:06;;;;;;;6.95;2.10;;;18.60;76.70;;;;;;9162811;19;20019;-64
2023/09/23 12:56:13;;;;;;;4.55;2.30;;;18.60;76.70;;;;;;9160116;19;20647;-68
2023/09/23 12:59:20;;;;;;;2.20;1.63;;;18.70;76.80;;;;;;9162394;19;20014;-64
2023/09/23 13:02:26;;;;;;;5.03;1.90;;;18.70;76.90;;;;;;9166078;19;20377;-64
2023/09/23 13:05:35;;;;;;;6.18;1.85;;;18.70;76.80;;;;;;9172718;19;20029;-64
2023/09/23 13:08:43;;;;;;;6.30;2.05;;;18.80;76.80;;;;;;9167450;19;20901;-64
2023/09/23 13:11:51;;;;;;;7.60;1.85;;;18.90;76.80;;;;;;9170223;19;20014;-62
2023/09/23 13:14:56;;;;;;;6.82;1.75;;;19.00;77.30;;;;;;9166321;19;20025;-64
2023/09/23 13:18:04;;;;;;;3.90;1.35;;;19.10;77.30;;;;;;9169502;19;20381;-64
2023/09/23 13:21:10;;;;;;;8.63;1.77;;;19.20;76.50;;;;;;9172009;19;20018;-64
2023/09/23 13:24:21;;;;;;;7.03;1.48;;;19.20;76.30;;;;;;9169794;19;20014;-69
2023/09/23 13:27:26;;;;;;;11.65;1.98;;;19.30;76.20;;;;;;9169110;19;20006;-66
2023/09/23 13:30:34;;;;;;;2.80;1.15;;;19.30;76.00;;;;;;9168522;19;20018;-64
2023/09/23 13:33:39;;;;;;;2.40;1.40;;;19.40;75.80;;;;;;9170025;19;20014;-65
2023/09/23 13:36:47;;;;;;;17.65;1.60;;;19.40;75.80;;;;;;9168131;19;20025;-67
2023/09/23 13:39:57;;;;;;;2.08;1.08;;;19.40;75.80;;;;;;9168081;19;20014;-65
2023/09/23 13:43:05;;;;;;;4.72;1.67;;;19.50;76.30;;;;;;9171782;19;20029;-66
2023/09/23 13:46:11;;;;;;;3.00;1.10;;;20.00;76.40;;;;;;9172143;19;20025;-64
2023/09/23 13:49:18;;;;;;;3.50;1.10;;;19.50;75.80;;;;;;9169978;19;20029;-67
2023/09/23 13:52:23;;;;;;;6.80;1.52;;;19.40;75.80;;;;;;9172556;19;20010;-65
2023/09/23 13:55:34;;;;;;;6.65;1.73;;;19.50;75.90;;;;;;9171138;19;20011;-63
2023/09/23 13:58:39;;;;;;;5.30;1.20;;;19.40;75.80;;;;;;9169630;19;20814;-65
2023/09/23 14:01:47;;;;;;;3.20;1.35;;;19.40;75.90;;;;;;9170917;19;20071;-64
2023/09/23 14:04:52;;;;;;;5.50;1.23;;;19.30;75.90;;;;;;9170351;19;20022;-68
2023/09/23 14:07:59;;;;;;;5.72;1.35;;;19.30;76.10;;;;;;9167176;19;20037;-64
2023/09/23 14:11:07;;;;;;;2.05;0.52;;;19.30;76.00;;;;;;9168116;19;20023;-67
2023/09/23 14:14:15;;;;;;;6.20;1.30;;;19.30;76.00;;;;;;9166294;19;20026;-65
2023/09/23 14:17:22;;;;;;;1.60;0.80;;;19.30;75.90;;;;;;9160407;19;20379;-66
2023/09/23 14:20:30;;;;;;;3.45;1.20;;;19.30;75.90;;;;;;9169748;19;20014;-67
2023/09/23 14:23:35;;;;;;;3.28;1.02;;;19.30;75.80;;;;;;9168873;19;20044;-68
2023/09/23 14:26:45;;;;;;;1.70;0.80;;;19.30;75.70;;;;;;9164761;19;20011;-68
2023/09/23 14:29:51;;;;;;;3.40;1.27;;;19.40;75.60;;;;;;9166665;19;20082;-64
2023/09/23 14:32:59;;;;;;;4.60;1.35;;;19.40;75.70;;;;;;9170270;19;20014;-65
2023/09/23 14:36:04;;;;;;;2.03;0.80;;;19.40;79.60;;;;;;9171182;19;20017;-64
2023/09/23 14:39:12;;;;;;;1.48;0.82;;;19.40;75.40;;;;;;9170792;19;20026;-64
2023/09/23 14:42:21;;;;;;;4.28;1.48;;;19.40;75.30;;;;;;9170474;19;20011;-64
2023/09/23 14:45:29;;;;;;;1.13;0.50;;;19.40;75.10;;;;;;9160095;19;20017;-64
2023/09/23 14:48:34;;;;;;;3.50;0.82;;;19.30;75.10;;;;;;9161068;19;20618;-64
2023/09/23 14:51:42;;;;;;;2.65;0.70;;;19.40;75.10;;;;;;9160626;19;20677;-65
2023/09/23 14:54:50;;;;;;;3.33;1.23;;;19.30;75.00;;;;;;9162912;19;20424;-68
2023/09/23 14:58:00;;;;;;;6.22;1.10;;;19.30;74.90;;;;;;9160901;19;20022;-64
2023/09/23 15:01:08;;;;;;;6.18;1.27;;;19.20;74.70;;;;;;9172706;19;20018;-63
2023/09/23 15:04:16;;;;;;;2.83;1.00;;;19.20;74.80;;;;;;9165892;19;20014;-63
2023/09/23 15:07:22;;;;;;;3.40;1.08;;;19.20;74.80;;;;;;9158622;19;20397;-63
2023/09/23 15:10:29;;;;;;;6.85;1.20;;;19.10;74.80;;;;;;9153241;19;20014;-64
2023/09/23 15:13:38;;;;;;;3.75;0.90;;;19.00;74.80;;;;;;9157948;19;20032;-65
2023/09/23 15:16:47;;;;;;;6.93;1.58;;;19.00;74.80;;;;;;9154835;19;20015;-63
2023/09/23 15:19:53;;;;;;;3.65;1.00;;;18.90;74.90;;;;;;9160426;19;20015;-66
2023/09/23 15:23:01;;;;;;;3.40;1.05;;;18.90;74.90;;;;;;9162924;19;20626;-66
2023/09/23 15:26:07;;;;;;;4.68;1.00;;;18.90;75.00;;;;;;9159097;19;20107;-64
2023/09/23 15:29:17;;;;;;;6.05;1.38;;;18.90;74.90;;;;;;9163482;19;20665;-67
2023/09/23 15:32:22;;;;;;;6.15;1.33;;;18.90;74.90;;;;;;9162683;19;20025;-65
2023/09/23 15:35:30;;;;;;;4.25;1.05;;;18.80;74.90;;;;;;9162220;19;20018;-67
2023/09/23 15:38:35;;;;;;;3.17;0.90;;;18.80;75.00;;;;;;9158591;19;20029;-65
2023/09/23 15:41:43;;;;;;;4.03;1.00;;;18.80;75.00;;;;;;9157607;19;20479;-63
2023/09/23 15:44:51;;;;;;;2.53;0.95;;;18.80;75.00;;;;;;9155786;19;20828;-66
2023/09/23 15:47:58;;;;;;;5.00;1.30;;;18.70;75.00;;;;;;9157652;19;20011;-67
2023/09/23 15:51:11;;;;;;;3.83;0.98;;;18.70;75.10;;;;;;9155320;19;20045;-65
2023/09/23 15:54:19;;;;;;;2.08;0.90;;;18.70;75.10;;;;;;9157798;19;20016;-64
2023/09/23 15:57:24;;;;;;;5.00;1.35;;;18.70;75.00;;;;;;9154427;19;20018;-67
2023/09/23 16:00:34;;;;;;;4.88;0.82;;;18.70;75.10;;;;;;9156646;19;20018;-65
2023/09/23 16:03:40;;;;;;;5.28;1.08;;;18.60;75.00;;;;;;9157280;19;20018;-68
2023/09/23 16:06:47;;;;;;;2.42;0.80;;;18.60;75.00;;;;;;9156181;19;20029;-64